Time;durP1;ratioP1;P1;durP2;ratioP2;P2;SDS_P1;SDS_P2;PMS_P1;PMS_P2;Temp;Humidity;BMP_temperature;BMP_pressure;BME280_temperature;BME280_humidity;BME280_pressure;Samples;Min_cycle;Max_cycle;Signal;HPM_P1;HPM_P2
2024/03/02 00:02:11;;;;;;;29.87;26.77;;;21.30;55.70;;;;;;5052418;28;20412;-70
2024/03/02 00:04:37;;;;;;;30.33;26.53;;;21.30;55.70;;;;;;5052283;28;20433;-72
2024/03/02 00:07:03;;;;;;;28.70;25.60;;;21.30;55.70;;;;;;5052276;28;20179;-71
2024/03/02 00:09:29;;;;;;;30.50;26.57;;;21.20;55.60;;;;;;5052180;28;20182;-71
2024/03/02 00:11:55;;;;;;;28.10;25.10;;;21.20;55.60;;;;;;5052244;28;20751;-72
2024/03/02 00:14:21;;;;;;;27.90;24.90;;;21.30;55.70;;;;;;5052441;28;20468;-71
2024/03/02 00:16:46;;;;;;;28.60;25.57;;;21.20;55.60;;;;;;5052200;28;20650;-71
2024/03/02 00:19:12;;;;;;;29.80;25.90;;;21.30;55.70;;;;;;5051821;28;20913;-71
2024/03/02 00:21:38;;;;;;;27.93;24.90;;;21.20;55.60;;;;;;5052240;28;20175;-70
2024/03/02 00:24:20;;;;;;;27.17;24.23;;;21.20;55.60;;;;;;5051959;28;20819;-72
2024/03/02 00:26:46;;;;;;;28.00;23.67;;;21.20;55.70;;;;;;5052001;28;20642;-72
2024/03/02 00:29:16;;;;;;;29.13;25.87;;;21.20;55.70;;;;;;5052030;28;20425;-72
2024/03/02 00:31:41;;;;;;;29.40;24.87;;;21.20;55.70;;;;;;5051800;28;20410;-71
2024/03/02 00:34:07;;;;;;;27.83;24.80;;;21.20;55.70;;;;;;5051760;28;20433;-72
2024/03/02 00:36:33;;;;;;;27.00;24.20;;;21.20;55.70;;;;;;5051762;28;20178;-72
2024/03/02 00:38:59;;;;;;;29.80;26.00;;;21.20;55.70;;;;;;5051606;28;20199;-71
2024/03/02 00:41:27;;;;;;;28.37;24.90;;;21.20;55.70;;;;;;5051618;28;20451;-72
2024/03/02 00:44:05;;;;;;;27.33;24.43;;;21.20;56.20;;;;;;5051557;28;20229;-72
2024/03/02 00:46:39;;;;;;;28.03;25.03;;;21.20;55.70;;;;;;5050764;28;20818;-71
2024/03/02 00:49:11;;;;;;;26.87;23.97;;;21.20;55.70;;;;;;5051472;28;20489;-72
2024/03/02 00:51:37;;;;;;;27.13;24.33;;;21.20;55.70;;;;;;5051470;28;20397;-71
2024/03/02 00:54:06;;;;;;;26.57;23.80;;;21.20;55.70;;;;;;5051233;28;20464;-72
2024/03/02 00:56:33;;;;;;;27.43;24.50;;;21.20;55.70;;;;;;5051334;28;20952;-72
2024/03/02 00:58:59;;;;;;;29.47;25.63;;;21.20;55.70;;;;;;5051165;28;20517;-71
2024/03/02 01:01:24;;;;;;;26.00;23.30;;;21.20;55.70;;;;;;5051161;28;20496;-72
2024/03/02 01:03:50;;;;;;;27.07;24.10;;;21.20;55.70;;;;;;5051001;28;20299;-72
2024/03/02 01:06:16;;;;;;;27.03;23.90;;;21.20;55.70;;;;;;5051166;28;20228;-72
2024/03/02 01:08:42;;;;;;;27.97;22.57;;;21.20;55.70;;;;;;5050984;28;20261;-71
2024/03/02 01:11:08;;;;;;;25.90;23.10;;;21.20;55.70;;;;;;5051036;28;20505;-73
2024/03/02 01:13:34;;;;;;;26.43;23.47;;;21.20;55.70;;;;;;5050969;28;20229;-72
2024/03/02 01:16:00;;;;;;;26.50;23.70;;;21.20;55.70;;;;;;5050992;28;20186;-71
2024/03/02 01:18:27;;;;;;;25.73;22.10;;;21.10;55.60;;;;;;5050714;28;20758;-72
2024/03/02 01:20:55;;;;;;;27.37;24.57;;;21.20;55.70;;;;;;5050754;28;20406;-72
2024/03/02 01:23:20;;;;;;;25.20;22.50;;;21.20;55.70;;;;;;5050782;28;20432;-72
2024/03/02 01:25:47;;;;;;;24.13;21.63;;;21.10;55.60;;;;;;5050782;28;20405;-72
2024/03/02 01:28:14;;;;;;;24.77;22.10;;;21.10;55.60;;;;;;5050958;28;20265;-72
2024/03/02 01:30:39;;;;;;;24.60;21.77;;;21.10;55.60;;;;;;5049298;28;20421;-71
2024/03/02 01:33:05;;;;;;;25.00;22.33;;;21.10;55.70;;;;;;5050498;28;20425;-72
2024/03/02 01:35:31;;;;;;;26.30;22.37;;;21.10;55.60;;;;;;5050629;28;20171;-71
2024/03/02 01:37:57;;;;;;;25.53;22.53;;;21.10;55.60;;;;;;5050367;28;20179;-70
2024/03/02 01:40:26;;;;;;;25.00;22.27;;;21.10;55.60;;;;;;5049302;28;20430;-72
2024/03/02 01:42:53;;;;;;;25.70;22.97;;;21.10;55.60;;;;;;5050436;28;20191;-70
2024/03/02 01:45:19;;;;;;;23.50;21.00;;;21.10;55.70;;;;;;5050488;28;20432;-72
2024/03/02 01:47:44;;;;;;;26.70;21.90;;;21.10;55.60;;;;;;5050402;28;20417;-69
2024/03/02 01:50:11;;;;;;;23.90;21.27;;;21.10;55.60;;;;;;5050276;28;20182;-72
2024/03/02 01:52:38;;;;;;;25.07;22.40;;;21.10;55.70;;;;;;5050297;28;20195;-72
2024/03/02 01:55:04;;;;;;;22.87;20.07;;;21.10;55.70;;;;;;5050316;28;20448;-72
2024/03/02 01:57:30;;;;;;;25.13;21.87;;;21.10;55.60;;;;;;5050218;28;20452;-71
2024/03/02 01:59:56;;;;;;;23.50;21.00;;;21.10;55.60;;;;;;5049823;28;20464;-72
2024/03/02 02:02:22;;;;;;;27.20;23.13;;;21.10;55.70;;;;;;5050433;28;20768;-72
2024/03/02 02:04:47;;;;;;;24.70;22.10;;;21.10;55.70;;;;;;5050138;28;20171;-72
2024/03/02 02:07:14;;;;;;;24.50;21.63;;;21.10;55.70;;;;;;5050048;28;20171;-72
2024/03/02 02:09:43;;;;;;;26.67;21.90;;;21.10;55.70;;;;;;5050071;28;20258;-71
2024/03/02 02:12:12;;;;;;;23.97;21.50;;;21.10;55.70;;;;;;5050374;28;20441;-72
2024/03/02 02:14:39;;;;;;;23.97;21.03;;;21.10;55.70;;;;;;5050033;28;20433;-70
2024/03/02 02:17:05;;;;;;;24.57;21.53;;;21.10;55.70;;;;;;5049866;28;20897;-72
2024/03/02 02:19:32;;;;;;;23.33;21.03;;;21.10;55.70;;;;;;5049860;28;20535;-72
2024/03/02 02:21:57;;;;;;;24.43;21.23;;;21.10;55.70;;;;;;5050162;28;20409;-71
2024/03/02 02:24:23;;;;;;;21.80;18.43;;;21.10;55.60;;;;;;5049868;28;20187;-72
2024/03/02 02:26:48;;;;;;;22.97;20.50;;;21.10;55.70;;;;;;5049845;28;20201;-72
2024/03/02 02:29:14;;;;;;;23.70;21.30;;;21.10;55.70;;;;;;5049755;28;20226;-72
2024/03/02 02:31:41;;;;;;;23.40;21.00;;;21.10;55.70;;;;;;5049891;28;20174;-72
2024/03/02 02:34:06;;;;;;;23.70;21.10;;;21.10;55.70;;;;;;5049729;28;20209;-72
2024/03/02 02:36:33;;;;;;;25.50;21.30;;;21.10;55.70;;;;;;5049663;28;20417;-72
2024/03/02 02:39:06;;;;;;;22.50;19.60;;;21.10;55.70;;;;;;5049711;28;20205;-72
2024/03/02 02:41:32;;;;;;;23.90;20.87;;;21.10;55.70;;;;;;5049807;28;20398;-72
2024/03/02 02:43:57;;;;;;;20.57;18.37;;;21.10;55.70;;;;;;5049749;28;20498;-71
2024/03/02 02:46:23;;;;;;;23.00;19.63;;;21.10;55.70;;;;;;5049973;28;20250;-71
2024/03/02 02:48:50;;;;;;;22.50;19.63;;;21.10;55.70;;;;;;5049747;28;20179;-72
2024/03/02 02:51:17;;;;;;;23.43;20.20;;;21.10;55.80;;;;;;5048617;28;20243;-72
2024/03/02 02:53:42;;;;;;;22.47;20.13;;;21.10;55.70;;;;;;5049557;28;20867;-72
2024/03/02 02:56:08;;;;;;;23.27;20.77;;;21.10;55.70;;;;;;5049590;28;20420;-71
2024/03/02 02:58:33;;;;;;;23.67;21.07;;;21.10;55.70;;;;;;5049540;28;20211;-71
2024/03/02 03:00:59;;;;;;;22.73;19.87;;;21.10;55.70;;;;;;5049652;28;20171;-72
2024/03/02 03:03:24;;;;;;;21.80;19.60;;;21.10;55.70;;;;;;5049488;28;20290;-70
2024/03/02 03:05:50;;;;;;;20.67;18.53;;;21.10;55.70;;;;;;5049489;28;20598;-72
2024/03/02 03:08:16;;;;;;;22.40;19.33;;;21.10;55.70;;;;;;5048141;28;20183;-71
2024/03/02 03:10:42;;;;;;;22.43;20.07;;;21.10;55.70;;;;;;5050875;28;20224;-72
2024/03/02 03:13:08;;;;;;;22.40;19.30;;;21.10;55.70;;;;;;5053173;28;20585;-72
2024/03/02 03:15:36;;;;;;;21.07;18.90;;;21.10;55.70;;;;;;5053545;28;20462;-72
2024/03/02 03:18:04;;;;;;;22.00;19.60;;;21.10;55.70;;;;;;5052918;28;20687;-72
2024/03/02 03:20:31;;;;;;;20.70;18.10;;;21.10;55.70;;;;;;5053325;28;20423;-72
2024/03/02 03:22:57;;;;;;;22.17;19.77;;;21.10;55.70;;;;;;5053095;28;20786;-71
2024/03/02 03:25:23;;;;;;;21.70;19.03;;;21.10;55.70;;;;;;5053328;28;20416;-72
2024/03/02 03:27:49;;;;;;;22.57;19.30;;;21.10;55.70;;;;;;5053085;28;20414;-71
2024/03/02 03:30:15;;;;;;;20.77;18.50;;;21.10;55.70;;;;;;5052941;28;20551;-70
2024/03/02 03:32:40;;;;;;;22.60;19.10;;;21.10;55.70;;;;;;5052861;28;20202;-72
2024/03/02 03:35:07;;;;;;;20.13;18.10;;;21.00;55.60;;;;;;5052920;28;20186;-71
2024/03/02 03:37:32;;;;;;;19.97;16.93;;;21.10;55.70;;;;;;5052790;28;20175;-73
2024/03/02 03:40:02;;;;;;;21.50;19.20;;;21.00;55.60;;;;;;5052720;28;20459;-71
2024/03/02 03:42:28;;;;;;;22.47;20.07;;;21.10;55.70;;;;;;5052874;28;20187;-71
2024/03/02 03:44:54;;;;;;;21.37;19.07;;;21.00;55.60;;;;;;5052639;28;20474;-72
2024/03/02 03:47:20;;;;;;;19.63;17.53;;;21.00;55.60;;;;;;5052662;28;20417;-71
2024/03/02 03:49:46;;;;;;;21.30;18.47;;;21.00;55.60;;;;;;5052701;28;20282;-71
2024/03/02 03:52:11;;;;;;;20.77;18.57;;;21.00;55.60;;;;;;5052576;28;21257;-72
2024/03/02 03:54:38;;;;;;;20.90;17.60;;;21.00;55.70;;;;;;5052516;28;20682;-71
2024/03/02 03:57:04;;;;;;;19.77;17.77;;;21.10;55.70;;;;;;5052529;28;20199;-72
2024/03/02 03:59:30;;;;;;;20.00;17.90;;;21.10;55.70;;;;;;5052364;28;20445;-71
2024/03/02 04:01:55;;;;;;;20.80;17.80;;;21.00;55.60;;;;;;5052383;28;20420;-72
2024/03/02 04:04:21;;;;;;;19.67;17.57;;;21.00;55.60;;;;;;5052237;28;20253;-71
2024/03/02 04:06:47;;;;;;;19.23;17.23;;;21.00;55.70;;;;;;5052197;28;20202;-72
2024/03/02 04:09:13;;;;;;;18.83;16.83;;;21.00;55.60;;;;;;5052210;28;20448;-71
2024/03/02 04:11:38;;;;;;;19.60;17.63;;;21.00;55.60;;;;;;5052416;28;20712;-72
2024/03/02 04:14:06;;;;;;;20.10;18.00;;;21.00;55.60;;;;;;5052286;28;20195;-72
2024/03/02 04:16:31;;;;;;;19.37;17.27;;;21.00;55.70;;;;;;5052135;28;20257;-72
2024/03/02 04:18:57;;;;;;;19.63;17.57;;;21.00;55.70;;;;;;5051902;28;20564;-72
2024/03/02 04:21:22;;;;;;;20.53;18.33;;;21.00;55.70;;;;;;5050410;28;20229;-71
2024/03/02 04:23:48;;;;;;;20.30;18.30;;;21.00;55.60;;;;;;5051875;28;20202;-71
2024/03/02 04:26:14;;;;;;;21.03;18.77;;;21.00;55.70;;;;;;5051901;28;20171;-71
2024/03/02 04:28:40;;;;;;;18.93;16.77;;;21.00;55.60;;;;;;5051958;28;20178;-71
2024/03/02 04:31:06;;;;;;;18.50;16.57;;;21.00;55.60;;;;;;5051704;28;20430;-71
2024/03/02 04:33:31;;;;;;;20.23;18.03;;;21.00;55.60;;;;;;5050326;28;20211;-71
2024/03/02 04:35:57;;;;;;;18.33;16.43;;;21.00;55.60;;;;;;5051641;28;20183;-71
2024/03/02 04:38:23;;;;;;;18.80;16.90;;;21.00;55.60;;;;;;5051509;28;20266;-72
2024/03/02 04:40:48;;;;;;;19.33;16.90;;;21.00;55.60;;;;;;5051719;28;20466;-72
2024/03/02 04:43:16;;;;;;;18.67;16.77;;;21.00;55.70;;;;;;5051493;28;20562;-72
2024/03/02 04:45:42;;;;;;;17.80;15.97;;;21.00;55.60;;;;;;5051428;28;20218;-72
2024/03/02 04:48:08;;;;;;;17.20;15.50;;;21.00;55.70;;;;;;5051492;28;20960;-72
2024/03/02 04:50:33;;;;;;;18.70;16.80;;;21.00;55.60;;;;;;5051538;28;20414;-72
2024/03/02 04:52:59;;;;;;;19.57;17.00;;;21.00;55.70;;;;;;5051389;28;20246;-71
2024/03/02 04:55:45;;;;;;;18.03;16.20;;;21.00;55.70;;;;;;5051372;28;20174;-71
2024/03/02 04:58:10;;;;;;;18.30;16.60;;;21.00;55.70;;;;;;5051130;28;20179;-72
2024/03/02 05:00:36;;;;;;;18.47;16.30;;;21.00;55.70;;;;;;5051218;28;20519;-72
2024/03/02 05:03:03;;;;;;;18.23;16.43;;;21.00;55.70;;;;;;5051182;28;20234;-71
2024/03/02 05:05:28;;;;;;;17.80;15.97;;;21.00;55.70;;;;;;5051216;28;20183;-71
2024/03/02 05:07:54;;;;;;;19.27;17.37;;;21.00;55.70;;;;;;5051031;28;20783;-72
2024/03/02 05:10:20;;;;;;;17.93;16.00;;;21.00;55.70;;;;;;5051124;28;20183;-71
2024/03/02 05:15:14;;;;;;;20.00;17.90;;;21.00;55.70;;;;;;5051376;28;20745;-71
2024/03/02 05:17:44;;;;;;;17.67;15.77;;;21.00;55.70;;;;;;5051023;28;21022;-73
2024/03/02 05:20:10;;;;;;;16.80;14.97;;;21.00;55.70;;;;;;5050916;28;20453;-72
2024/03/02 05:22:36;;;;;;;18.90;16.87;;;21.00;55.70;;;;;;5050779;28;20412;-71
2024/03/02 05:25:04;;;;;;;17.00;15.30;;;21.00;55.70;;;;;;5050703;28;20426;-72
2024/03/02 05:27:30;;;;;;;17.10;15.40;;;21.00;55.70;;;;;;5050979;28;20433;-71
2024/03/02 05:29:55;;;;;;;16.63;14.90;;;21.00;55.70;;;;;;5050910;28;20486;-72
2024/03/02 05:32:21;;;;;;;17.50;15.53;;;21.00;55.70;;;;;;5050699;28;20410;-72
2024/03/02 05:34:46;;;;;;;16.70;15.10;;;21.00;55.70;;;;;;5050241;28;20269;-72
2024/03/02 05:37:12;;;;;;;17.93;16.07;;;21.00;55.70;;;;;;5050619;28;20178;-71
2024/03/02 05:39:38;;;;;;;16.80;15.10;;;20.90;55.60;;;;;;5050575;28;20194;-72
2024/03/02 05:42:04;;;;;;;19.03;16.77;;;21.00;55.80;;;;;;5050613;28;20182;-72
2024/03/02 05:44:29;;;;;;;17.57;15.80;;;20.90;55.60;;;;;;5050478;28;20196;-71
2024/03/02 05:46:55;;;;;;;17.97;16.17;;;20.90;55.60;;;;;;5049378;28;20417;-72
2024/03/02 05:49:21;;;;;;;17.73;15.83;;;20.90;55.60;;;;;;5050646;28;20190;-70
2024/03/02 05:51:47;;;;;;;17.87;15.97;;;21.00;55.70;;;;;;5050490;28;20461;-71
2024/03/02 05:54:13;;;;;;;18.33;16.43;;;20.90;55.60;;;;;;5050349;28;20939;-71
2024/03/02 05:56:39;;;;;;;16.57;14.90;;;20.90;55.60;;;;;;5050412;28;20552;-71
2024/03/02 05:59:13;;;;;;;16.30;14.73;;;20.90;55.60;;;;;;5050510;28;20469;-71
2024/03/02 06:01:43;;;;;;;16.83;15.03;;;20.90;55.60;;;;;;5050720;28;20549;-70
2024/03/02 06:04:10;;;;;;;15.90;14.20;;;21.00;55.70;;;;;;5050129;28;20426;-73
2024/03/02 06:06:36;;;;;;;16.83;14.20;;;20.90;55.60;;;;;;5050174;28;20448;-71
2024/03/02 06:09:07;;;;;;;16.63;15.03;;;20.90;55.60;;;;;;5050379;28;20824;-72
2024/03/02 06:11:36;;;;;;;15.47;13.77;;;21.00;55.70;;;;;;5050114;28;20159;-72
2024/03/02 06:14:02;;;;;;;17.73;14.67;;;21.00;55.70;;;;;;5050136;28;20516;-72
2024/03/02 06:16:28;;;;;;;16.33;14.07;;;20.90;55.60;;;;;;5050125;28;20421;-72
2024/03/02 06:18:53;;;;;;;17.17;15.37;;;20.90;55.70;;;;;;5049871;28;20202;-72
2024/03/02 06:21:20;;;;;;;15.63;14.00;;;21.00;55.70;;;;;;5050124;28;20216;-72
2024/03/02 06:23:46;;;;;;;14.80;13.30;;;20.90;55.60;;;;;;5048621;28;20230;-72
2024/03/02 06:26:12;;;;;;;15.13;13.63;;;21.00;55.70;;;;;;5050083;28;20413;-72
2024/03/02 06:28:38;;;;;;;16.03;14.33;;;21.00;55.70;;;;;;5048549;28;20802;-71
2024/03/02 06:31:03;;;;;;;15.27;13.67;;;21.00;55.70;;;;;;5050004;28;20909;-72
2024/03/02 06:33:29;;;;;;;15.67;14.17;;;21.00;55.70;;;;;;5049946;28;20516;-72
2024/03/02 06:35:55;;;;;;;14.93;13.20;;;21.00;55.70;;;;;;5031674;28;20187;-69
2024/03/02 06:38:20;;;;;;;16.60;14.90;;;21.00;55.70;;;;;;5049892;28;20214;-72
2024/03/02 06:40:46;;;;;;;16.43;14.73;;;21.00;55.70;;;;;;5049934;28;20168;-71
2024/03/02 06:43:11;;;;;;;15.77;14.13;;;21.00;55.70;;;;;;5049844;28;20194;-73
2024/03/02 06:45:37;;;;;;;15.10;13.50;;;21.00;55.70;;;;;;5051335;28;20171;-71
2024/03/02 06:48:03;;;;;;;16.10;13.67;;;21.00;55.70;;;;;;5053969;28;20164;-72
2024/03/02 06:50:29;;;;;;;14.07;12.57;;;21.00;55.70;;;;;;5054040;28;20174;-72
2024/03/02 06:52:55;;;;;;;13.57;12.13;;;21.00;55.70;;;;;;5053676;28;20198;-71
2024/03/02 06:55:21;;;;;;;16.13;13.10;;;21.00;55.60;;;;;;5052642;28;20417;-72
2024/03/02 06:57:47;;;;;;;12.90;11.60;;;21.00;55.50;;;;;;5053863;28;21007;-73
2024/03/02 07:00:13;;;;;;;14.13;12.63;;;21.10;55.60;;;;;;5053794;28;20461;-72
2024/03/02 07:02:41;;;;;;;15.20;12.33;;;21.10;55.60;;;;;;5053746;28;20266;-72
2024/03/02 07:05:08;;;;;;;13.93;12.53;;;21.10;55.60;;;;;;5053605;28;20932;-72
2024/03/02 07:07:34;;;;;;;13.70;12.40;;;21.10;55.60;;;;;;5053613;28;20791;-72
2024/03/02 07:10:00;;;;;;;15.10;13.20;;;21.10;55.60;;;;;;5053701;28;20413;-71
2024/03/02 07:12:26;;;;;;;16.53;12.00;;;21.10;55.50;;;;;;5053522;28;20785;-71
2024/03/02 07:17:30;;;;;;;16.50;14.07;;;21.10;55.50;;;;;;5053755;28;20193;-73
2024/03/02 07:19:56;;;;;;;14.33;12.80;;;21.10;55.50;;;;;;5053341;28;20467;-71
2024/03/02 07:22:22;;;;;;;14.30;12.40;;;21.10;55.60;;;;;;5053341;28;20418;-72
2024/03/02 07:24:49;;;;;;;14.40;12.53;;;21.10;55.50;;;;;;5053279;28;20224;-71
2024/03/02 07:27:15;;;;;;;14.43;12.30;;;21.10;55.50;;;;;;5053290;28;20406;-71
2024/03/02 07:29:41;;;;;;;11.83;10.63;;;21.10;55.50;;;;;;5053354;28;20409;-72
2024/03/02 07:32:08;;;;;;;12.50;11.20;;;21.10;55.50;;;;;;5051913;28;20447;-72
2024/03/02 07:34:33;;;;;;;11.33;10.23;;;21.10;55.50;;;;;;5053034;28;20274;-71
2024/03/02 07:36:59;;;;;;;13.47;11.80;;;21.10;55.60;;;;;;5053182;28;20504;-71
2024/03/02 07:39:25;;;;;;;13.30;11.87;;;21.10;55.60;;;;;;5052995;28;20207;-71
2024/03/02 07:41:51;;;;;;;14.67;13.10;;;21.10;55.60;;;;;;5053412;28;20190;-72
2024/03/02 07:44:18;;;;;;;15.50;13.20;;;21.10;55.70;;;;;;5052786;28;20198;-71
2024/03/02 07:46:46;;;;;;;12.87;11.23;;;21.10;55.70;;;;;;5053099;28;20182;-71
2024/03/02 07:49:13;;;;;;;13.43;12.10;;;21.10;55.70;;;;;;5052908;28;20405;-72
2024/03/02 07:51:38;;;;;;;12.77;11.47;;;21.10;55.60;;;;;;5052644;28;20914;-71
2024/03/02 07:54:04;;;;;;;11.73;10.63;;;21.10;55.60;;;;;;5052722;28;20532;-70
2024/03/02 07:56:30;;;;;;;13.00;11.67;;;21.10;55.60;;;;;;5052179;28;20183;-72
2024/03/02 07:58:57;;;;;;;12.53;11.33;;;21.10;55.60;;;;;;5052447;28;20224;-73
2024/03/02 08:01:23;;;;;;;12.80;11.37;;;21.10;55.60;;;;;;5052580;28;20443;-71
2024/03/02 08:03:50;;;;;;;12.70;11.27;;;21.10;55.60;;;;;;5052494;28;20421;-72
2024/03/02 08:06:16;;;;;;;13.37;11.83;;;21.10;55.60;;;;;;5051906;28;20163;-73
2024/03/02 08:08:42;;;;;;;13.80;11.33;;;21.10;55.60;;;;;;5052230;28;20425;-72
2024/03/02 08:11:08;;;;;;;12.80;11.40;;;21.10;55.70;;;;;;5052440;28;20417;-72
2024/03/02 08:13:33;;;;;;;13.40;12.10;;;21.10;55.80;;;;;;5052329;28;20568;-72
2024/03/02 08:15:59;;;;;;;11.97;10.60;;;21.10;55.80;;;;;;5052082;28;20258;-73
2024/03/02 08:18:25;;;;;;;12.93;11.10;;;21.10;55.80;;;;;;5052194;28;20190;-70
2024/03/02 08:20:50;;;;;;;11.73;10.53;;;21.20;55.90;;;;;;5052304;28;20258;-71
2024/03/02 08:23:17;;;;;;;13.70;11.07;;;21.10;55.90;;;;;;5052204;28;20195;-71
2024/03/02 08:25:42;;;;;;;12.13;11.03;;;21.20;55.90;;;;;;5052185;28;20237;-72
2024/03/02 08:28:08;;;;;;;13.33;11.43;;;21.20;56.00;;;;;;5052114;28;20413;-71
2024/03/02 08:30:34;;;;;;;12.90;11.43;;;21.20;55.90;;;;;;5052114;28;20199;-72
2024/03/02 08:33:00;;;;;;;13.80;12.03;;;21.20;55.90;;;;;;5052026;28;20195;-71
2024/03/02 08:35:25;;;;;;;12.90;11.60;;;21.20;56.00;;;;;;5052016;28;21002;-71
2024/03/02 08:37:51;;;;;;;12.40;11.00;;;21.20;56.00;;;;;;5051981;28;20414;-71
2024/03/02 08:40:17;;;;;;;12.20;10.93;;;21.20;56.00;;;;;;5052042;28;20262;-72
2024/03/02 08:42:42;;;;;;;14.80;11.37;;;21.20;56.00;;;;;;5050315;28;20285;-73
2024/03/02 08:45:08;;;;;;;13.03;10.23;;;21.20;56.00;;;;;;5051776;28;20269;-73
2024/03/02 08:47:34;;;;;;;11.60;10.40;;;21.20;56.00;;;;;;5051960;28;20185;-71
2024/03/02 08:50:00;;;;;;;11.73;10.53;;;21.20;56.00;;;;;;5051865;28;20768;-72
2024/03/02 08:52:29;;;;;;;12.80;11.50;;;21.20;56.00;;;;;;5051529;28;20263;-72
2024/03/02 08:54:55;;;;;;;12.73;10.97;;;21.20;56.00;;;;;;5051600;28;20413;-71
2024/03/02 08:57:20;;;;;;;12.33;10.50;;;21.20;56.00;;;;;;5051540;28;20419;-72
2024/03/02 08:59:46;;;;;;;12.47;10.30;;;21.20;56.00;;;;;;5050162;28;20290;-71
2024/03/02 09:02:12;;;;;;;12.70;10.90;;;21.20;55.90;;;;;;5051559;28;20163;-72
2024/03/02 09:04:37;;;;;;;14.00;10.50;;;21.20;56.00;;;;;;5051392;28;20198;-72
2024/03/02 09:07:03;;;;;;;14.10;11.27;;;21.20;56.00;;;;;;5051169;28;20178;-73
2024/03/02 09:09:28;;;;;;;12.13;10.83;;;21.20;56.00;;;;;;5050624;28;20179;-71
2024/03/02 09:11:54;;;;;;;11.33;10.23;;;21.20;55.90;;;;;;5051263;28;20175;-71
2024/03/02 09:14:21;;;;;;;13.10;11.63;;;21.20;55.90;;;;;;5049703;28;20207;-72
2024/03/02 09:16:46;;;;;;;12.30;10.87;;;21.20;55.90;;;;;;5051037;28;20460;-72
2024/03/02 09:19:12;;;;;;;11.60;10.50;;;21.20;55.90;;;;;;5050940;28;20496;-72
2024/03/02 09:21:38;;;;;;;11.53;10.30;;;21.20;56.00;;;;;;5051022;28;20634;-73
2024/03/02 09:24:04;;;;;;;10.30;9.27;;;21.20;56.00;;;;;;5051099;28;20213;-72
2024/03/02 09:26:29;;;;;;;10.37;9.30;;;21.30;56.10;;;;;;5050837;28;20178;-71
2024/03/02 09:28:55;;;;;;;13.13;10.73;;;21.30;56.10;;;;;;5049654;28;20588;-70
2024/03/02 09:31:20;;;;;;;11.43;10.03;;;21.20;56.00;;;;;;5051242;28;20182;-72
2024/03/02 09:33:46;;;;;;;12.73;11.17;;;21.30;56.10;;;;;;5050760;28;20187;-72
2024/03/02 09:36:22;;;;;;;12.47;11.20;;;21.30;56.10;;;;;;5050839;28;20260;-72
2024/03/02 09:38:48;;;;;;;12.10;10.90;;;21.30;56.00;;;;;;5050527;28;20194;-70
2024/03/02 09:41:15;;;;;;;10.70;9.20;;;21.30;56.10;;;;;;5049359;28;20776;-71
2024/03/02 09:43:40;;;;;;;11.30;10.13;;;21.30;56.10;;;;;;5050721;28;21202;-71
2024/03/02 09:46:10;;;;;;;11.63;10.40;;;21.30;56.10;;;;;;5050556;28;20544;-71
2024/03/02 09:48:36;;;;;;;12.20;10.50;;;21.30;56.00;;;;;;5050731;28;20175;-71
2024/03/02 09:51:03;;;;;;;13.30;10.60;;;21.30;56.10;;;;;;5050363;28;20420;-71
2024/03/02 09:53:33;;;;;;;12.30;11.00;;;21.30;56.00;;;;;;5050345;28;20199;-70
2024/03/02 09:56:02;;;;;;;10.80;9.03;;;21.30;56.00;;;;;;5050342;28;20951;-72
2024/03/02 09:58:28;;;;;;;13.27;11.87;;;21.30;56.00;;;;;;5048973;28;20406;-72
2024/03/02 10:00:54;;;;;;;12.43;11.13;;;21.30;56.10;;;;;;5050276;28;20413;-73
2024/03/02 10:03:20;;;;;;;10.47;9.37;;;21.30;56.00;;;;;;5050210;28;20433;-72
2024/03/02 10:05:46;;;;;;;10.63;9.50;;;21.30;56.00;;;;;;5050124;28;20178;-72
2024/03/02 10:08:12;;;;;;;10.60;9.60;;;21.30;56.00;;;;;;5050109;28;20787;-73
2024/03/02 10:10:43;;;;;;;11.90;10.33;;;21.30;56.00;;;;;;5050159;28;20167;-71
2024/03/02 10:13:10;;;;;;;9.80;8.80;;;21.30;56.00;;;;;;5050385;28;20203;-73
2024/03/02 10:15:37;;;;;;;11.53;10.43;;;21.30;56.00;;;;;;5050098;28;20406;-72
2024/03/02 10:18:04;;;;;;;10.60;9.50;;;21.30;56.10;;;;;;5049983;28;20955;-72
2024/03/02 10:20:30;;;;;;;10.40;9.37;;;21.30;56.10;;;;;;5049753;28;20452;-72
2024/03/02 10:23:09;;;;;;;11.73;10.57;;;21.30;56.10;;;;;;5050285;28;20959;-72
2024/03/02 10:25:34;;;;;;;11.10;10.00;;;21.30;56.10;;;;;;5050156;28;20394;-71
2024/03/02 10:28:00;;;;;;;8.73;7.93;;;21.30;56.10;;;;;;5050002;28;20492;-72
2024/03/02 10:30:29;;;;;;;11.93;10.60;;;21.30;56.10;;;;;;5050021;28;20187;-70
2024/03/02 10:32:55;;;;;;;10.73;9.63;;;21.30;56.10;;;;;;5050130;28;20445;-71
2024/03/02 10:35:23;;;;;;;10.90;9.70;;;21.30;56.10;;;;;;5049955;28;20821;-72
2024/03/02 10:37:52;;;;;;;9.87;8.97;;;21.30;56.10;;;;;;5050047;28;20413;-72
2024/03/02 10:40:18;;;;;;;11.73;9.97;;;21.30;56.10;;;;;;5050043;28;20464;-71
2024/03/02 10:42:45;;;;;;;8.77;7.93;;;21.30;56.10;;;;;;5049709;28;20436;-71
2024/03/02 10:45:12;;;;;;;10.43;9.30;;;21.30;56.00;;;;;;5049757;28;20445;-71
2024/03/02 10:47:38;;;;;;;9.03;8.13;;;21.30;56.10;;;;;;5050038;28;20426;-72
2024/03/02 10:50:10;;;;;;;10.27;9.27;;;21.30;56.00;;;;;;5049770;28;20421;-71
2024/03/02 10:52:36;;;;;;;10.00;9.00;;;21.30;56.00;;;;;;5049585;28;20420;-72
2024/03/02 10:55:05;;;;;;;10.93;9.07;;;21.30;56.00;;;;;;5049653;28;20420;-70
2024/03/02 10:57:40;;;;;;;11.03;9.93;;;21.30;56.00;;;;;;5049701;28;20414;-71
2024/03/02 11:00:14;;;;;;;11.77;9.77;;;21.30;55.90;;;;;;5049548;28;20471;-72
2024/03/02 11:02:42;;;;;;;10.97;9.77;;;21.30;55.90;;;;;;5049601;28;21006;-71
2024/03/02 11:05:10;;;;;;;9.80;8.80;;;21.30;55.90;;;;;;5048227;28;20421;-71
2024/03/02 11:07:38;;;;;;;10.97;8.87;;;21.30;55.90;;;;;;5049655;28;20450;-72
2024/03/02 11:10:08;;;;;;;9.53;8.53;;;21.30;55.90;;;;;;5049608;28;20410;-71
2024/03/02 11:12:50;;;;;;;9.50;8.60;;;21.30;56.00;;;;;;5048041;28;20422;-72
2024/03/02 11:15:21;;;;;;;10.50;8.43;;;21.30;56.00;;;;;;5049588;28;20443;-72
2024/03/02 11:17:47;;;;;;;9.57;8.47;;;21.30;56.00;;;;;;5049326;28;20448;-70
2024/03/02 11:20:14;;;;;;;10.57;9.50;;;21.30;56.10;;;;;;5049417;28;20441;-72
2024/03/02 11:22:40;;;;;;;12.20;9.73;;;21.30;56.10;;;;;;5049511;28;20564;-72
2024/03/02 11:25:26;;;;;;;9.70;8.70;;;21.30;56.10;;;;;;5049485;28;20920;-72
2024/03/02 11:27:55;;;;;;;11.80;9.07;;;21.30;56.10;;;;;;5049465;28;20167;-71
2024/03/02 11:30:32;;;;;;;8.13;6.73;;;21.30;56.10;;;;;;5049408;28;21164;-72
2024/03/02 11:33:07;;;;;;;10.77;9.23;;;21.30;56.10;;;;;;5052510;28;20505;-71
2024/03/02 11:35:37;;;;;;;9.80;8.90;;;21.30;56.10;;;;;;5052944;28;20497;-70
2024/03/02 11:38:03;;;;;;;10.33;9.27;;;21.30;56.10;;;;;;5052902;28;20904;-72
2024/03/02 11:40:30;;;;;;;9.10;8.03;;;21.30;56.20;;;;;;5051194;28;20830;-72
2024/03/02 11:42:57;;;;;;;10.40;8.90;;;21.30;56.20;;;;;;5052685;28;20433;-72
2024/03/02 11:45:24;;;;;;;10.17;7.83;;;21.30;56.10;;;;;;5052749;28;20789;-73
2024/03/02 11:47:57;;;;;;;8.70;7.57;;;21.30;56.10;;;;;;5052620;28;20402;-72
2024/03/02 11:50:30;;;;;;;10.60;9.23;;;21.30;56.10;;;;;;5052611;28;20502;-72
2024/03/02 11:52:58;;;;;;;7.30;6.60;;;21.30;56.10;;;;;;5052438;28;20459;-72
2024/03/02 11:55:25;;;;;;;9.73;8.50;;;21.30;56.10;;;;;;5052458;28;20409;-71
2024/03/02 11:57:52;;;;;;;10.07;9.00;;;21.30;56.10;;;;;;5052378;28;20501;-72
2024/03/02 12:00:19;;;;;;;8.80;7.90;;;21.30;56.10;;;;;;5050856;28;20453;-71
2024/03/02 12:02:49;;;;;;;9.23;8.33;;;21.30;56.10;;;;;;5050930;28;20468;-70
2024/03/02 12:05:16;;;;;;;10.70;7.93;;;21.30;56.10;;;;;;5052184;28;20416;-72
2024/03/02 12:07:43;;;;;;;11.03;8.50;;;21.30;56.10;;;;;;5052219;28;20413;-72
2024/03/02 12:10:09;;;;;;;10.07;8.97;;;21.30;56.20;;;;;;5052155;28;20443;-71
2024/03/02 12:12:34;;;;;;;8.13;7.10;;;21.30;56.10;;;;;;5052169;28;20551;-70
2024/03/02 12:15:00;;;;;;;8.73;7.90;;;21.30;56.10;;;;;;5052118;28;20517;-72
2024/03/02 12:17:26;;;;;;;9.70;8.13;;;21.30;55.90;;;;;;5051962;28;20284;-73
2024/03/02 12:19:52;;;;;;;9.23;8.43;;;21.30;55.80;;;;;;5052026;28;20461;-70
2024/03/02 12:22:18;;;;;;;7.43;6.30;;;21.30;55.80;;;;;;5051994;28;20224;-72
2024/03/02 12:24:47;;;;;;;7.30;6.60;;;21.30;55.70;;;;;;5051964;28;20421;-73
2024/03/02 12:27:15;;;;;;;7.03;6.13;;;21.30;55.70;;;;;;5051911;28;20516;-72
2024/03/02 12:29:41;;;;;;;8.33;7.10;;;21.30;55.70;;;;;;5051894;28;20429;-71
2024/03/02 12:32:07;;;;;;;7.97;7.17;;;21.30;55.60;;;;;;5050469;28;20425;-71
2024/03/02 12:34:33;;;;;;;8.00;7.30;;;21.30;55.60;;;;;;5051699;28;20437;-72